Time;durP1;ratioP1;P1;durP2;ratioP2;P2;SDS_P1;SDS_P2;PMS_P1;PMS_P2;Temp;Humidity;BMP_temperature;BMP_pressure;BME280_temperature;BME280_humidity;BME280_pressure;Samples;Min_cycle;Max_cycle;Signal;HPM_P1;HPM_P2
2024/02/05 00:02:18;;;;;;;1.42;1.40;;;;;;;;;;4924227;29;20094;-68
2024/02/05 00:04:44;;;;;;;1.73;1.63;;;;;;;;;;4921360;29;20051;-67
2024/02/05 00:07:13;;;;;;;4.35;1.58;;;;;;;;;;4916222;29;20046;-67
2024/02/05 00:09:40;;;;;;;1.50;1.50;;;;;;;;;;4928518;29;20066;-67
2024/02/05 00:12:06;;;;;;;2.45;1.98;;;;;;;;;;4921183;29;20098;-69
2024/02/05 00:14:32;;;;;;;1.70;1.60;;;;;;;;;;4924576;29;20210;-68
2024/02/05 00:16:59;;;;;;;1.50;1.40;;;;;;;;;;4924182;29;20066;-68
2024/02/05 00:19:25;;;;;;;3.20;1.88;;;;;;;;;;4928036;29;20230;-67
2024/02/05 00:21:51;;;;;;;1.50;1.40;;;;;;;;;;4920274;29;20134;-67
2024/02/05 00:24:17;;;;;;;2.58;1.40;;;;;;;;;;4930120;29;20039;-67
2024/02/05 00:26:43;;;;;;;1.77;1.67;;;;;;;;;;4921751;29;20519;-68
2024/02/05 00:29:09;;;;;;;3.83;1.60;;;;;;;;;;4946147;28;20050;-69
2024/02/05 00:31:35;;;;;;;1.63;1.52;;;;;;;;;;4934809;29;20032;-68
2024/02/05 00:34:01;;;;;;;2.13;1.58;;;;;;;;;;4927364;29;20043;-67
2024/02/05 00:36:27;;;;;;;1.70;1.60;;;;;;;;;;4921897;29;20380;-67
2024/02/05 00:38:53;;;;;;;2.80;1.45;;;;;;;;;;4921277;29;20044;-68
2024/02/05 00:41:19;;;;;;;2.38;2.28;;;;;;;;;;4925067;29;20032;-68
2024/02/05 00:43:45;;;;;;;3.08;1.50;;;;;;;;;;4920579;29;20054;-69
2024/02/05 00:46:23;;;;;;;0.90;0.90;;;;;;;;;;4923653;29;20039;-69
2024/02/05 00:48:49;;;;;;;3.65;1.38;;;;;;;;;;4923980;29;20051;-68
2024/02/05 00:51:16;;;;;;;1.95;1.63;;;;;;;;;;4924448;29;20083;-68
2024/02/05 00:53:42;;;;;;;1.67;1.58;;;;;;;;;;4919717;29;20384;-67
2024/02/05 00:56:07;;;;;;;1.35;1.10;;;;;;;;;;4920310;29;20569;-68
2024/02/05 00:58:33;;;;;;;1.65;1.45;;;;;;;;;;4922219;29;20078;-69
2024/02/05 01:00:59;;;;;;;3.28;1.60;;;;;;;;;;4922629;29;21602;-68
2024/02/05 01:03:25;;;;;;;1.15;1.05;;;;;;;;;;4923447;29;20127;-67
2024/02/05 01:05:51;;;;;;;2.80;1.80;;;;;;;;;;4925449;29;20040;-68
2024/02/05 01:08:17;;;;;;;4.72;1.73;;;;;;;;;;4921359;29;20058;-69
2024/02/05 01:10:43;;;;;;;3.00;1.92;;;;;;;;;;4936249;29;20038;-68
2024/02/05 01:13:09;;;;;;;2.67;1.38;;;;;;;;;;4923731;29;20047;-70
2024/02/05 01:15:35;;;;;;;1.63;1.52;;;;;;;;;;4927176;29;20042;-68
2024/02/05 01:18:02;;;;;;;4.57;2.30;;;;;;;;;;4927450;29;20144;-69
2024/02/05 01:20:28;;;;;;;3.60;1.60;;;;;;;;;;4907598;29;20024;-69
2024/02/05 01:22:54;;;;;;;1.77;1.55;;;;;;;;;;4925530;29;20502;-68
2024/02/05 01:25:21;;;;;;;2.63;1.50;;;;;;;;;;4923423;29;20035;-68
2024/02/05 01:27:46;;;;;;;2.10;1.90;;;;;;;;;;4922377;29;20048;-68
2024/02/05 01:30:13;;;;;;;2.25;1.60;;;;;;;;;;4923732;29;20028;-68
2024/02/05 01:32:39;;;;;;;2.30;1.73;;;;;;;;;;4926849;29;20086;-68
2024/02/05 01:35:05;;;;;;;1.98;1.88;;;;;;;;;;4916302;29;20590;-68
2024/02/05 01:37:31;;;;;;;2.70;1.90;;;;;;;;;;4922761;29;20060;-68
2024/02/05 01:39:57;;;;;;;2.55;1.70;;;;;;;;;;4920980;29;20028;-68
2024/02/05 01:42:24;;;;;;;1.35;1.35;;;;;;;;;;4922682;29;20043;-69
2024/02/05 01:44:54;;;;;;;1.67;1.58;;;;;;;;;;4920221;29;20047;-68
2024/02/05 01:47:20;;;;;;;1.88;1.73;;;;;;;;;;4926315;29;20046;-69
2024/02/05 01:49:47;;;;;;;3.00;1.88;;;;;;;;;;4919455;29;20044;-68
2024/02/05 01:52:14;;;;;;;1.60;1.50;;;;;;;;;;4929525;29;20039;-68
2024/02/05 01:54:41;;;;;;;1.70;1.60;;;;;;;;;;4904005;29;20052;-69
2024/02/05 01:57:07;;;;;;;2.90;1.85;;;;;;;;;;4924687;29;20047;-68
2024/02/05 01:59:33;;;;;;;2.60;1.63;;;;;;;;;;4920746;29;20486;-68
2024/02/05 02:02:00;;;;;;;1.77;1.65;;;;;;;;;;4919619;29;20032;-70
2024/02/05 02:04:26;;;;;;;1.90;1.80;;;;;;;;;;4921261;29;20106;-70
2024/02/05 02:06:52;;;;;;;4.75;2.00;;;;;;;;;;4920106;29;20036;-69
2024/02/05 02:09:19;;;;;;;2.22;2.10;;;;;;;;;;4922899;29;20091;-70
2024/02/05 02:11:45;;;;;;;3.65;1.67;;;;;;;;;;4918809;29;20032;-69
2024/02/05 02:14:11;;;;;;;3.47;2.53;;;;;;;;;;4923058;29;20052;-69
2024/02/05 02:16:37;;;;;;;6.05;2.40;;;;;;;;;;4922400;29;20199;-70
2024/02/05 02:19:04;;;;;;;5.45;2.47;;;;;;;;;;4919003;29;20028;-69
2024/02/05 02:21:33;;;;;;;2.95;2.15;;;;;;;;;;4918835;29;20582;-70
2024/02/05 02:23:59;;;;;;;3.70;2.17;;;;;;;;;;4905192;29;20074;-69
2024/02/05 02:26:26;;;;;;;6.13;2.30;;;;;;;;;;4921346;29;20032;-69
2024/02/05 02:28:52;;;;;;;2.83;2.03;;;;;;;;;;4923661;29;20107;-70
2024/02/05 02:31:19;;;;;;;5.15;2.33;;;;;;;;;;4919855;29;20031;-70
2024/02/05 02:34:06;;;;;;;3.88;2.28;;;;;;;;;;4903394;29;20111;-70
2024/02/05 02:36:34;;;;;;;1.88;1.73;;;;;;;;;;4923188;29;21195;-69
2024/02/05 02:39:12;;;;;;;1.95;1.85;;;;;;;;;;4922183;29;20491;-69
2024/02/05 02:41:39;;;;;;;4.35;2.10;;;;;;;;;;4926819;29;20067;-69
2024/02/05 02:44:05;;;;;;;2.45;2.22;;;;;;;;;;4922872;29;20040;-69
2024/02/05 02:46:31;;;;;;;2.33;2.22;;;;;;;;;;4917668;29;20040;-69
2024/02/05 02:48:57;;;;;;;1.58;1.35;;;;;;;;;;4922605;29;20044;-69
2024/02/05 02:51:23;;;;;;;2.20;2.10;;;;;;;;;;4921326;29;20040;-70
2024/02/05 02:53:49;;;;;;;4.20;2.42;;;;;;;;;;4923647;29;20520;-69
2024/02/05 02:56:15;;;;;;;26.65;3.50;;;;;;;;;;4927062;29;20032;-71
2024/02/05 02:58:41;;;;;;;2.28;2.13;;;;;;;;;;4906780;29;20151;-70
2024/02/05 03:01:07;;;;;;;5.68;3.28;;;;;;;;;;4929807;29;20042;-71
2024/02/05 03:03:33;;;;;;;3.20;2.90;;;;;;;;;;4927162;29;20031;-71
2024/02/05 03:05:59;;;;;;;9.73;3.92;;;;;;;;;;4924746;29;20058;-71
2024/02/05 03:08:25;;;;;;;6.13;4.20;;;;;;;;;;4924227;29;20094;-70
2024/02/05 03:10:50;;;;;;;7.70;4.95;;;;;;;;;;4926254;29;20594;-70
2024/02/05 03:13:17;;;;;;;5.30;3.63;;;;;;;;;;4921958;29;20126;-69
2024/02/05 03:15:43;;;;;;;6.85;3.75;;;;;;;;;;4906857;29;20463;-70
2024/02/05 03:18:09;;;;;;;5.95;4.50;;;;;;;;;;4926256;29;20082;-70
2024/02/05 03:20:37;;;;;;;11.73;4.68;;;;;;;;;;4925221;29;20035;-70
2024/02/05 03:23:04;;;;;;;6.50;5.00;;;;;;;;;;4926825;29;20055;-69
2024/02/05 03:25:30;;;;;;;9.57;5.10;;;;;;;;;;4931168;29;20063;-70
2024/02/05 03:27:59;;;;;;;3.38;3.05;;;;;;;;;;4925621;29;20039;-70
2024/02/05 03:30:29;;;;;;;3.63;3.17;;;;;;;;;;4926127;29;20054;-70
2024/02/05 03:32:55;;;;;;;4.72;3.63;;;;;;;;;;4939629;29;20044;-69
2024/02/05 03:35:21;;;;;;;11.32;3.03;;;;;;;;;;4927882;29;20091;-70
2024/02/05 03:37:47;;;;;;;4.07;2.88;;;;;;;;;;4922352;29;20040;-70
2024/02/05 03:40:14;;;;;;;5.60;2.05;;;;;;;;;;4928313;29;20031;-70
2024/02/05 03:42:39;;;;;;;5.63;3.13;;;;;;;;;;4929082;29;20048;-69
2024/02/05 03:45:06;;;;;;;3.42;2.65;;;;;;;;;;4905983;29;20411;-70
2024/02/05 03:47:31;;;;;;;2.75;2.55;;;;;;;;;;4924801;29;20056;-68
2024/02/05 03:49:57;;;;;;;2.05;1.95;;;;;;;;;;4929886;29;20394;-69
2024/02/05 03:52:23;;;;;;;5.72;2.70;;;;;;;;;;4928266;29;20038;-70
2024/02/05 03:54:49;;;;;;;1.75;1.65;;;;;;;;;;4925825;29;20537;-70
2024/02/05 03:57:15;;;;;;;5.88;2.83;;;;;;;;;;4931644;29;20047;-70
2024/02/05 03:59:41;;;;;;;5.38;2.38;;;;;;;;;;4926225;29;20082;-69
2024/02/05 04:02:07;;;;;;;3.05;2.80;;;;;;;;;;4930922;29;20071;-69
2024/02/05 04:04:34;;;;;;;6.75;2.47;;;;;;;;;;4929390;29;20063;-69
2024/02/05 04:06:59;;;;;;;4.78;3.17;;;;;;;;;;4920704;29;20645;-71
2024/02/05 04:09:25;;;;;;;3.50;2.50;;;;;;;;;;4928689;29;20106;-68
2024/02/05 04:11:51;;;;;;;2.85;2.65;;;;;;;;;;4923430;29;20060;-68
2024/02/05 04:14:17;;;;;;;5.00;2.90;;;;;;;;;;4924065;29;20415;-69
2024/02/05 04:16:43;;;;;;;4.88;2.75;;;;;;;;;;4922628;29;20055;-70
2024/02/05 04:19:09;;;;;;;9.88;3.55;;;;;;;;;;4928384;29;20027;-71
2024/02/05 04:21:35;;;;;;;4.38;3.03;;;;;;;;;;4922237;29;20032;-70
2024/02/05 04:24:02;;;;;;;4.00;2.47;;;;;;;;;;4923092;29;20162;-69
2024/02/05 04:26:28;;;;;;;5.28;2.63;;;;;;;;;;4922689;29;20036;-70
2024/02/05 04:28:54;;;;;;;8.18;2.70;;;;;;;;;;4928490;29;20139;-70
2024/02/05 04:31:20;;;;;;;4.85;2.90;;;;;;;;;;4926340;29;20118;-69
2024/02/05 04:33:48;;;;;;;2.28;2.15;;;;;;;;;;4906614;29;20497;-69
2024/02/05 04:36:15;;;;;;;2.90;2.65;;;;;;;;;;4928804;29;20074;-70
2024/02/05 04:38:41;;;;;;;3.90;2.55;;;;;;;;;;4921339;29;20048;-70
2024/02/05 04:41:07;;;;;;;2.78;2.60;;;;;;;;;;4924529;29;20092;-70
2024/02/05 04:43:33;;;;;;;2.40;2.25;;;;;;;;;;4922733;29;20138;-70
2024/02/05 04:45:59;;;;;;;3.08;2.70;;;;;;;;;;4925888;29;20135;-70
2024/02/05 04:48:25;;;;;;;3.95;2.80;;;;;;;;;;4910347;29;20047;-70
2024/02/05 04:50:51;;;;;;;2.90;2.70;;;;;;;;;;4920853;29;20036;-70
2024/02/05 04:53:17;;;;;;;5.38;2.88;;;;;;;;;;4924518;29;20043;-71
2024/02/05 04:55:43;;;;;;;6.72;2.88;;;;;;;;;;4920292;29;20039;-70
2024/02/05 04:58:09;;;;;;;4.28;2.97;;;;;;;;;;4926169;29;20058;-71
2024/02/05 05:00:35;;;;;;;4.68;2.53;;;;;;;;;;4924442;29;20039;-70
2024/02/05 05:03:01;;;;;;;4.60;3.15;;;;;;;;;;4920403;29;20750;-71
2024/02/05 05:05:29;;;;;;;3.00;2.70;;;;;;;;;;4922364;29;20046;-70
2024/02/05 05:07:55;;;;;;;5.75;2.60;;;;;;;;;;4922726;29;20056;-71
2024/02/05 05:10:20;;;;;;;4.82;2.95;;;;;;;;;;4925894;29;20067;-70
2024/02/05 05:12:46;;;;;;;3.00;2.50;;;;;;;;;;4892494;29;20044;-71
2024/02/05 05:15:15;;;;;;;6.80;3.10;;;;;;;;;;4926504;29;20502;-70
2024/02/05 05:17:42;;;;;;;3.53;2.72;;;;;;;;;;4920174;29;20444;-70
2024/02/05 05:20:08;;;;;;;8.57;2.80;;;;;;;;;;4925132;29;20086;-69
2024/02/05 05:22:35;;;;;;;4.55;3.10;;;;;;;;;;4924291;29;20024;-70
2024/02/05 05:25:01;;;;;;;8.93;3.13;;;;;;;;;;4927031;29;20866;-69
2024/02/05 05:27:27;;;;;;;7.78;3.38;;;;;;;;;;4923294;29;20052;-70
2024/02/05 05:29:53;;;;;;;3.78;3.40;;;;;;;;;;4925048;29;20071;-70
2024/02/05 05:32:38;;;;;;;5.45;3.40;;;;;;;;;;4926043;29;20470;-69
2024/02/05 05:35:04;;;;;;;7.20;3.50;;;;;;;;;;4923917;29;20122;-70
2024/02/05 05:37:30;;;;;;;4.40;3.53;;;;;;;;;;4927017;29;20503;-70
2024/02/05 05:39:56;;;;;;;4.00;3.60;;;;;;;;;;4926357;29;20038;-69
2024/02/05 05:42:22;;;;;;;6.22;4.03;;;;;;;;;;4926719;29;20518;-68
2024/02/05 05:44:48;;;;;;;7.30;3.75;;;;;;;;;;4920219;29;20039;-68
2024/02/05 05:47:14;;;;;;;3.85;3.13;;;;;;;;;;4929107;29;20044;-70
2024/02/05 05:49:40;;;;;;;4.55;3.80;;;;;;;;;;4908799;29;20056;-69
2024/02/05 05:52:05;;;;;;;4.28;3.28;;;;;;;;;;4943138;28;20036;-69
2024/02/05 05:54:31;;;;;;;4.93;3.33;;;;;;;;;;4921689;29;20051;-69
2024/02/05 05:56:57;;;;;;;3.03;2.83;;;;;;;;;;4925385;29;20039;-69
2024/02/05 05:59:23;;;;;;;4.55;3.20;;;;;;;;;;4922322;29;20102;-70
2024/02/05 06:01:49;;;;;;;6.43;3.80;;;;;;;;;;4926756;29;20482;-70
2024/02/05 06:04:15;;;;;;;6.72;3.88;;;;;;;;;;4926218;29;20074;-69
2024/02/05 06:06:41;;;;;;;6.93;5.40;;;;;;;;;;4922974;29;20523;-69
2024/02/05 06:09:07;;;;;;;7.15;4.78;;;;;;;;;;4921892;29;20051;-69
2024/02/05 06:11:33;;;;;;;8.05;4.68;;;;;;;;;;4926625;29;20063;-70
2024/02/05 06:13:59;;;;;;;9.05;4.75;;;;;;;;;;4924492;29;20133;-70
2024/02/05 06:16:28;;;;;;;11.93;5.30;;;;;;;;;;4922553;29;20194;-70
2024/02/05 06:18:54;;;;;;;4.90;4.38;;;;;;;;;;4928107;29;20406;-69
2024/02/05 06:21:19;;;;;;;4.97;4.30;;;;;;;;;;4922793;29;20796;-68
2024/02/05 06:23:45;;;;;;;7.45;4.30;;;;;;;;;;4928104;29;20046;-70
2024/02/05 06:26:12;;;;;;;9.80;4.47;;;;;;;;;;4920061;29;20030;-69
2024/02/05 06:28:39;;;;;;;9.57;4.07;;;;;;;;;;4923182;29;20151;-70
2024/02/05 06:31:04;;;;;;;5.00;4.03;;;;;;;;;;4922139;29;20083;-69
2024/02/05 06:33:32;;;;;;;4.88;3.35;;;;;;;;;;4925524;29;20043;-68
2024/02/05 06:35:58;;;;;;;3.60;3.10;;;;;;;;;;4923210;29;20410;-68
2024/02/05 06:38:23;;;;;;;11.25;5.38;;;;;;;;;;4920199;29;20047;-68
2024/02/05 06:40:50;;;;;;;9.07;5.05;;;;;;;;;;4891856;29;20067;-68
2024/02/05 06:43:16;;;;;;;6.50;5.05;;;;;;;;;;4920157;29;20070;-70
2024/02/05 06:45:41;;;;;;;7.53;4.03;;;;;;;;;;4918678;29;20051;-69
2024/02/05 06:48:09;;;;;;;6.20;3.72;;;;;;;;;;4921073;29;20079;-71
2024/02/05 06:50:58;;;;;;;3.95;3.42;;;;;;;;;;4904456;29;20039;-69
2024/02/05 06:53:25;;;;;;;5.22;4.55;;;;;;;;;;4921951;29;20574;-69
2024/02/05 06:55:51;;;;;;;6.82;4.35;;;;;;;;;;4923134;29;20625;-68
2024/02/05 06:58:19;;;;;;;4.95;4.45;;;;;;;;;;4923185;29;20035;-69
2024/02/05 07:00:45;;;;;;;9.27;4.30;;;;;;;;;;4905601;29;20039;-68
2024/02/05 07:03:11;;;;;;;5.72;4.13;;;;;;;;;;4928212;29;20032;-68
2024/02/05 07:05:37;;;;;;;5.07;4.38;;;;;;;;;;4908293;29;20578;-69
2024/02/05 07:08:03;;;;;;;5.75;4.47;;;;;;;;;;4929909;29;20043;-69
2024/02/05 07:10:29;;;;;;;8.45;4.70;;;;;;;;;;4925961;29;20035;-68
2024/02/05 07:12:55;;;;;;;3.67;3.38;;;;;;;;;;4925960;29;20042;-68
2024/02/05 07:15:21;;;;;;;9.85;4.78;;;;;;;;;;4907846;29;20269;-70
2024/02/05 07:17:47;;;;;;;5.57;3.35;;;;;;;;;;4928625;29;20095;-69
2024/02/05 07:20:13;;;;;;;4.68;3.35;;;;;;;;;;4928430;29;20498;-69
2024/02/05 07:22:39;;;;;;;5.05;3.38;;;;;;;;;;4944417;29;20050;-69
2024/02/05 07:25:05;;;;;;;1.90;1.80;;;;;;;;;;4931687;28;20582;-67
2024/02/05 07:27:31;;;;;;;7.20;2.85;;;;;;;;;;4925924;29;20679;-69
2024/02/05 07:29:57;;;;;;;3.90;3.05;;;;;;;;;;4915899;29;20055;-69
2024/02/05 07:32:24;;;;;;;12.38;3.03;;;;;;;;;;4929552;29;20043;-69
2024/02/05 07:34:49;;;;;;;5.97;3.35;;;;;;;;;;4928103;29;20040;-68
2024/02/05 07:37:15;;;;;;;5.95;3.65;;;;;;;;;;4939299;28;20122;-68
2024/02/05 07:39:41;;;;;;;7.85;3.50;;;;;;;;;;4953079;28;20524;-68
2024/02/05 07:42:07;;;;;;;3.65;2.33;;;;;;;;;;4952754;28;20175;-68
2024/02/05 07:44:33;;;;;;;5.60;2.70;;;;;;;;;;4952343;28;20172;-68
2024/02/05 07:46:59;;;;;;;21.80;3.58;;;;;;;;;;4935248;28;20091;-67
2024/02/05 07:49:28;;;;;;;4.13;2.25;;;;;;;;;;4931994;29;20048;-68
2024/02/05 07:51:55;;;;;;;2.85;2.65;;;;;;;;;;4929192;29;20455;-67
2024/02/05 07:54:24;;;;;;;4.60;3.17;;;;;;;;;;4933581;29;20039;-67
2024/02/05 07:56:50;;;;;;;6.28;3.72;;;;;;;;;;4919302;29;20071;-67
2024/02/05 07:59:16;;;;;;;7.97;4.03;;;;;;;;;;4952807;28;20031;-65
2024/02/05 08:01:42;;;;;;;2.70;2.53;;;;;;;;;;4940279;29;20051;-71
2024/02/05 08:04:08;;;;;;;2.88;2.65;;;;;;;;;;4934424;29;20044;-67
2024/02/05 08:06:35;;;;;;;4.28;3.40;;;;;;;;;;4933218;29;20477;-68
2024/02/05 08:09:01;;;;;;;7.88;3.70;;;;;;;;;;4945699;29;20043;-67
2024/02/05 08:11:27;;;;;;;6.65;2.75;;;;;;;;;;4931940;29;20099;-69
2024/02/05 08:13:53;;;;;;;4.93;3.17;;;;;;;;;;4933178;29;20044;-68
2024/02/05 08:16:19;;;;;;;5.47;2.78;;;;;;;;;;4932713;29;20046;-69
2024/02/05 08:18:46;;;;;;;3.90;3.38;;;;;;;;;;4950646;29;20043;-69
2024/02/05 08:21:13;;;;;;;6.50;3.70;;;;;;;;;;4951853;29;20528;-70
2024/02/05 08:23:39;;;;;;;3.65;3.13;;;;;;;;;;4952628;28;20362;-69
2024/02/05 08:26:05;;;;;;;4.72;3.60;;;;;;;;;;4946560;28;20040;-69
2024/02/05 08:28:34;;;;;;;4.18;3.15;;;;;;;;;;4946574;29;20075;-69
2024/02/05 08:31:00;;;;;;;5.38;3.45;;;;;;;;;;4952288;28;20086;-68
2024/02/05 08:33:27;;;;;;;6.00;4.78;;;;;;;;;;4951929;28;20039;-69
2024/02/05 08:35:53;;;;;;;8.00;4.72;;;;;;;;;;4939834;28;20111;-69
2024/02/05 08:38:18;;;;;;;3.88;3.53;;;;;;;;;;4945630;29;20640;-69
2024/02/05 08:40:47;;;;;;;2.28;2.17;;;;;;;;;;4950603;29;20043;-69
2024/02/05 08:43:16;;;;;;;13.57;4.75;;;;;;;;;;4939485;28;20126;-68
2024/02/05 08:45:42;;;;;;;4.82;4.25;;;;;;;;;;4931943;29;20130;-68
2024/02/05 08:48:08;;;;;;;8.18;2.42;;;;;;;;;;4932638;29;20047;-69
2024/02/05 08:50:35;;;;;;;4.85;4.18;;;;;;;;;;4914535;29;20035;-69
2024/02/05 08:53:04;;;;;;;8.43;4.88;;;;;;;;;;4932399;29;20147;-70
2024/02/05 08:55:33;;;;;;;4.75;4.32;;;;;;;;;;4930832;29;20036;-69
2024/02/05 08:57:59;;;;;;;8.55;5.30;;;;;;;;;;4932856;29;20510;-69
2024/02/05 09:00:25;;;;;;;7.28;5.30;;;;;;;;;;4932863;29;20570;-68
2024/02/05 09:02:55;;;;;;;4.35;3.33;;;;;;;;;;4932529;29;20039;-68
2024/02/05 09:05:20;;;;;;;3.95;3.35;;;;;;;;;;4931804;29;20039;-68
2024/02/05 09:07:46;;;;;;;7.68;4.20;;;;;;;;;;4930776;29;20046;-69
2024/02/05 09:10:12;;;;;;;9.02;4.90;;;;;;;;;;4931710;29;20507;-68
2024/02/05 09:12:38;;;;;;;12.15;5.25;;;;;;;;;;4936392;29;20127;-68
2024/02/05 09:15:04;;;;;;;5.25;4.63;;;;;;;;;;4950356;29;20126;-69
2024/02/05 09:17:33;;;;;;;6.07;3.80;;;;;;;;;;4934917;28;20058;-68
2024/02/05 09:19:59;;;;;;;7.15;4.20;;;;;;;;;;4917437;29;20040;-68
2024/02/05 09:22:25;;;;;;;3.80;3.50;;;;;;;;;;4940639;29;20054;-68
2024/02/05 09:24:51;;;;;;;7.65;4.82;;;;;;;;;;4936740;29;20506;-67
2024/02/05 09:27:18;;;;;;;10.02;6.25;;;;;;;;;;4933926;29;20061;-68
2024/02/05 09:29:44;;;;;;;4.65;2.85;;;;;;;;;;4932835;29;20450;-70
2024/02/05 09:32:10;;;;;;;5.60;3.63;;;;;;;;;;4933215;29;20047;-68
2024/02/05 09:34:37;;;;;;;3.20;3.00;;;;;;;;;;4951178;29;20039;-70
2024/02/05 09:37:03;;;;;;;8.23;5.30;;;;;;;;;;4938999;29;20534;-67
2024/02/05 09:39:29;;;;;;;5.90;4.63;;;;;;;;;;4950018;29;20058;-67
2024/02/05 09:41:57;;;;;;;4.53;3.00;;;;;;;;;;4950837;28;20035;-67
2024/02/05 09:44:23;;;;;;;2.47;2.38;;;;;;;;;;4950091;29;20032;-68
2024/02/05 09:46:52;;;;;;;4.25;3.85;;;;;;;;;;4940198;29;20043;-68
2024/02/05 09:49:18;;;;;;;12.13;5.50;;;;;;;;;;4948325;29;20102;-68
2024/02/05 09:51:46;;;;;;;7.93;4.70;;;;;;;;;;4951144;28;20043;-68
2024/02/05 09:54:13;;;;;;;9.55;4.30;;;;;;;;;;4950850;28;20043;-67
2024/02/05 09:56:39;;;;;;;5.80;4.40;;;;;;;;;;4942631;29;20062;-66
2024/02/05 09:59:05;;;;;;;5.05;4.50;;;;;;;;;;4931594;29;20498;-68
2024/02/05 10:01:31;;;;;;;7.35;4.45;;;;;;;;;;4930039;29;20036;-67
2024/02/05 10:03:57;;;;;;;6.80;4.82;;;;;;;;;;4930242;29;20575;-68
2024/02/05 10:06:23;;;;;;;2.13;2.03;;;;;;;;;;4930388;29;20039;-67
2024/02/05 10:08:51;;;;;;;10.00;4.68;;;;;;;;;;4937696;29;20036;-68
2024/02/05 10:11:17;;;;;;;4.53;4.10;;;;;;;;;;4929991;29;20031;-68
2024/02/05 10:13:43;;;;;;;9.57;5.35;;;;;;;;;;4931138;29;20039;-68
2024/02/05 10:16:08;;;;;;;5.45;3.95;;;;;;;;;;4930925;29;20039;-69
2024/02/05 10:18:34;;;;;;;4.45;3.58;;;;;;;;;;4931298;29;20439;-68
2024/02/05 10:21:01;;;;;;;7.00;4.45;;;;;;;;;;4931385;29;20044;-67
2024/02/05 10:23:26;;;;;;;10.95;5.10;;;;;;;;;;4930448;29;20118;-66
2024/02/05 10:25:55;;;;;;;5.40;4.90;;;;;;;;;;4931397;29;20528;-68
2024/02/05 10:28:21;;;;;;;4.65;4.25;;;;;;;;;;4938604;29;20129;-66
2024/02/05 10:30:47;;;;;;;10.38;4.78;;;;;;;;;;4950082;29;20027;-67
2024/02/05 10:33:15;;;;;;;5.88;4.35;;;;;;;;;;4932867;29;20079;-68
2024/02/05 10:35:41;;;;;;;5.18;4.68;;;;;;;;;;4949098;29;20043;-68
2024/02/05 10:38:08;;;;;;;4.35;4.03;;;;;;;;;;4931147;29;20047;-67
2024/02/05 10:40:35;;;;;;;4.75;3.80;;;;;;;;;;4929954;29;20477;-68
2024/02/05 10:43:03;;;;;;;7.05;5.20;;;;;;;;;;4930895;29;20035;-67
2024/02/05 10:45:30;;;;;;;5.25;4.75;;;;;;;;;;4931200;29;20040;-68
2024/02/05 10:47:57;;;;;;;7.18;5.35;;;;;;;;;;4931592;29;20126;-68
2024/02/05 10:50:23;;;;;;;9.10;5.43;;;;;;;;;;4949104;29;20094;-68
2024/02/05 10:52:49;;;;;;;4.55;3.67;;;;;;;;;;4949729;28;20466;-68
2024/02/05 10:55:15;;;;;;;8.60;5.82;;;;;;;;;;4948926;29;20526;-68
2024/02/05 10:57:41;;;;;;;10.30;5.25;;;;;;;;;;4935949;28;20060;-67
2024/02/05 11:00:10;;;;;;;6.35;4.47;;;;;;;;;;4929825;29;20050;-68
2024/02/05 11:02:41;;;;;;;6.20;5.00;;;;;;;;;;4929689;29;20028;-68
2024/02/05 11:05:07;;;;;;;5.50;4.68;;;;;;;;;;4912308;29;20047;-68
2024/02/05 11:07:35;;;;;;;6.22;5.22;;;;;;;;;;4923512;29;20395;-69
2024/02/05 11:10:01;;;;;;;8.52;5.68;;;;;;;;;;4935395;29;20463;-68
2024/02/05 11:12:33;;;;;;;5.82;4.80;;;;;;;;;;4931404;29;20036;-68
2024/02/05 11:15:04;;;;;;;7.20;5.07;;;;;;;;;;4933062;29;20035;-69
2024/02/05 11:17:36;;;;;;;5.38;4.18;;;;;;;;;;4932683;29;20071;-67
2024/02/05 11:20:06;;;;;;;5.43;4.35;;;;;;;;;;4933999;29;20036;-68
2024/02/05 11:22:32;;;;;;;7.00;3.85;;;;;;;;;;4934758;29;20071;-68
2024/02/05 11:24:58;;;;;;;7.63;4.22;;;;;;;;;;4934337;29;20063;-68
2024/02/05 11:27:24;;;;;;;6.63;4.13;;;;;;;;;;4934074;29;20708;-67
2024/02/05 11:29:51;;;;;;;5.97;3.65;;;;;;;;;;4917250;29;20134;-67
2024/02/05 11:32:17;;;;;;;9.45;3.80;;;;;;;;;;4934448;29;20410;-68
2024/02/05 11:34:43;;;;;;;6.40;4.63;;;;;;;;;;4934187;29;20043;-68
2024/02/05 11:37:09;;;;;;;6.55;3.78;;;;;;;;;;4933977;29;20036;-68
2024/02/05 11:39:37;;;;;;;5.20;3.45;;;;;;;;;;4947419;29;20053;-68
2024/02/05 11:42:06;;;;;;;5.68;3.78;;;;;;;;;;4953153;28;20267;-68
2024/02/05 11:44:32;;;;;;;6.88;3.55;;;;;;;;;;4952021;29;20043;-68
2024/02/05 11:46:59;;;;;;;6.22;3.38;;;;;;;;;;4945312;29;20036;-68
2024/02/05 11:49:32;;;;;;;6.60;3.58;;;;;;;;;;4932945;29;20805;-69
2024/02/05 11:51:58;;;;;;;6.75;2.90;;;;;;;;;;4932719;29;20035;-68
2024/02/05 11:54:23;;;;;;;4.90;3.05;;;;;;;;;;4934121;29;20043;-68
2024/02/05 11:56:49;;;;;;;5.07;3.20;;;;;;;;;;4933601;29;20094;-67
2024/02/05 11:59:15;;;;;;;8.00;3.60;;;;;;;;;;4934320;29;20066;-68
2024/02/05 12:01:41;;;;;;;4.40;3.42;;;;;;;;;;4934246;29;20075;-68
2024/02/05 12:04:07;;;;;;;10.52;4.07;;;;;;;;;;4933821;29;20055;-67
2024/02/05 12:06:33;;;;;;;7.18;4.30;;;;;;;;;;4932484;29;20032;-68
2024/02/05 12:08:59;;;;;;;3.60;3.28;;;;;;;;;;4934477;29;20102;-68
2024/02/05 12:11:25;;;;;;;7.25;3.80;;;;;;;;;;4935435;29;20027;-67
2024/02/05 12:13:57;;;;;;;4.00;3.58;;;;;;;;;;4934016;29;20517;-69
2024/02/05 12:16:26;;;;;;;2.60;2.40;;;;;;;;;;4935068;29;20163;-68
2024/02/05 12:18:55;;;;;;;9.20;4.15;;;;;;;;;;4942455;29;20028;-67
2024/02/05 12:21:21;;;;;;;5.32;3.60;;;;;;;;;;4947901;29;20083;-68
2024/02/05 12:26:31;;;;;;;8.50;3.47;;;;;;;;;;4930856;29;20063;-68
2024/02/05 12:28:57;;;;;;;3.92;3.05;;;;;;;;;;4933494;29;20047;-67
2024/02/05 12:31:23;;;;;;;3.92;2.78;;;;;;;;;;4930823;29;20594;-68
2024/02/05 12:34:01;;;;;;;3.45;3.13;;;;;;;;;;4930161;29;20644;-69
2024/02/05 12:36:36;;;;;;;7.82;2.92;;;;;;;;;;4930589;29;20039;-68
2024/02/05 12:39:05;;;;;;;4.57;3.25;;;;;;;;;;4916616;29;20139;-69
2024/02/05 12:41:30;;;;;;;2.95;2.75;;;;;;;;;;4930741;29;20035;-68
2024/02/05 12:44:15;;;;;;;2.17;2.08;;;;;;;;;;4932596;29;20079;-68
2024/02/05 12:46:41;;;;;;;3.25;3.00;;;;;;;;;;4930902;29;20031;-68
2024/02/05 12:49:07;;;;;;;4.57;3.05;;;;;;;;;;4929374;29;20055;-68
2024/02/05 12:54:17;;;;;;;9.85;4.20;;;;;;;;;;4929543;29;20046;-68
2024/02/05 12:56:43;;;;;;;5.82;3.10;;;;;;;;;;4929532;29;20031;-69
2024/02/05 12:59:12;;;;;;;7.20;2.47;;;;;;;;;;4930402;29;20094;-68
2024/02/05 13:01:37;;;;;;;6.60;2.83;;;;;;;;;;4929447;29;20035;-69
2024/02/05 13:04:03;;;;;;;6.30;2.90;;;;;;;;;;4929297;29;20066;-68
2024/02/05 13:06:29;;;;;;;8.68;3.47;;;;;;;;;;4929951;29;20039;-68
2024/02/05 13:08:58;;;;;;;2.03;1.92;;;;;;;;;;4929163;29;20055;-68
2024/02/05 13:11:30;;;;;;;6.45;2.88;;;;;;;;;;4928875;29;20523;-69
2024/02/05 13:13:56;;;;;;;5.53;2.17;;;;;;;;;;4929213;29;20047;-68
2024/02/05 13:16:23;;;;;;;5.85;1.65;;;;;;;;;;4930689;29;20035;-69
2024/02/05 13:18:49;;;;;;;1.75;1.63;;;;;;;;;;4931174;29;20136;-69
2024/02/05 13:21:15;;;;;;;1.95;1.88;;;;;;;;;;4929196;29;20622;-69
2024/02/05 13:23:41;;;;;;;2.90;2.00;;;;;;;;;;4930258;29;20114;-68
2024/02/05 13:28:51;;;;;;;3.00;2.25;;;;;;;;;;4927979;29;20058;-68
2024/02/05 13:31:36;;;;;;;3.40;2.50;;;;;;;;;;4929632;29;20031;-68
2024/02/05 13:34:02;;;;;;;6.05;3.05;;;;;;;;;;4911973;29;20039;-68
2024/02/05 13:36:28;;;;;;;3.83;2.53;;;;;;;;;;4928792;29;20051;-69
2024/02/05 13:38:54;;;;;;;5.50;3.05;;;;;;;;;;4927572;29;20562;-69
2024/02/05 13:41:23;;;;;;;2.10;1.90;;;;;;;;;;4929647;29;20068;-68
2024/02/05 13:43:49;;;;;;;4.63;1.95;;;;;;;;;;4929643;29;20044;-69
2024/02/05 13:46:15;;;;;;;2.92;1.63;;;;;;;;;;4929450;29;20508;-68
2024/02/05 13:48:41;;;;;;;2.05;1.77;;;;;;;;;;4928630;29;20055;-68
2024/02/05 13:51:07;;;;;;;2.95;1.55;;;;;;;;;;4928558;29;20043;-68
2024/02/05 13:53:33;;;;;;;2.75;1.80;;;;;;;;;;4928356;29;20134;-69
2024/02/05 13:56:03;;;;;;;4.85;2.20;;;;;;;;;;4927431;29;20151;-69
2024/02/05 13:58:29;;;;;;;3.13;1.90;;;;;;;;;;4931168;29;20039;-68
2024/02/05 14:00:55;;;;;;;3.65;2.72;;;;;;;;;;4928588;29;20028;-69
2024/02/05 14:03:21;;;;;;;2.00;1.90;;;;;;;;;;4931080;29;20039;-67
2024/02/05 14:05:47;;;;;;;2.08;1.90;;;;;;;;;;4927913;29;20155;-68
2024/02/05 14:08:33;;;;;;;2.03;1.92;;;;;;;;;;4931019;29;20125;-69
2024/02/05 14:10:59;;;;;;;1.65;1.55;;;;;;;;;;4928945;29;20043;-69
2024/02/05 14:13:25;;;;;;;5.30;3.58;;;;;;;;;;4929223;29;20046;-68
2024/02/05 14:15:51;;;;;;;1.83;1.73;;;;;;;;;;4911738;29;20032;-67
2024/02/05 14:18:17;;;;;;;1.65;1.58;;;;;;;;;;4929023;29;20070;-69
2024/02/05 14:20:43;;;;;;;2.25;1.73;;;;;;;;;;4929292;29;20771;-70
2024/02/05 14:23:28;;;;;;;1.10;1.10;;;;;;;;;;4927650;29;20043;-69
2024/02/05 14:25:54;;;;;;;9.00;2.10;;;;;;;;;;4928261;29;20032;-69
2024/02/05 14:28:19;;;;;;;3.90;2.80;;;;;;;;;;4929295;29;20051;-69
2024/02/05 14:30:46;;;;;;;3.00;2.22;;;;;;;;;;4928514;29;20585;-68
2024/02/05 14:33:11;;;;;;;2.85;2.55;;;;;;;;;;4928480;29;20047;-69
2024/02/05 14:35:37;;;;;;;3.65;2.65;;;;;;;;;;4912245;29;20036;-68
2024/02/05 14:38:03;;;;;;;5.32;2.65;;;;;;;;;;4927964;29;20062;-69
2024/02/05 14:40:29;;;;;;;1.67;1.58;;;;;;;;;;4911593;29;20039;-68
2024/02/05 14:42:55;;;;;;;2.63;2.10;;;;;;;;;;4927841;29;20122;-67
2024/02/05 14:45:21;;;;;;;4.85;2.55;;;;;;;;;;4932934;29;20122;-68
2024/02/05 14:47:47;;;;;;;6.40;2.88;;;;;;;;;;4926794;29;20046;-70
2024/02/05 14:50:13;;;;;;;5.05;2.80;;;;;;;;;;4932844;29;20510;-70